Time;durP1;ratioP1;P1;durP2;ratioP2;P2;SDS_P1;SDS_P2;PMS_P1;PMS_P2;Temp;Humidity;BMP_temperature;BMP_pressure;BME280_temperature;BME280_humidity;BME280_pressure;Samples;Min_cycle;Max_cycle;Signal;HPM_P1;HPM_P2
2023/12/29 00:00:09;;;;;;;4.15;1.92;;;;;;;-0.05;93.49;101509.28;10418749;28;20041;-79
2023/12/29 00:05:10;;;;;;;6.97;2.45;;;;;;;-0.54;93.89;101437.56;10419849;28;20046;-78
2023/12/29 00:10:11;;;;;;;8.02;2.17;;;;;;;-0.21;93.49;101502.19;10419512;28;20041;-79
2023/12/29 00:15:11;;;;;;;6.30;2.35;;;;;;;-0.06;93.81;101515.41;10419975;28;20490;-77
2023/12/29 00:20:12;;;;;;;5.80;1.75;;;;;;;-0.10;93.72;101511.25;10417342;28;20060;-79
2023/12/29 00:25:13;;;;;;;4.38;1.80;;;;;;;-0.09;93.44;101514.69;10419281;28;20041;-79
2023/12/29 00:30:14;;;;;;;5.38;1.80;;;;;;;-0.21;93.50;101499.59;10418573;28;20122;-78
2023/12/29 00:35:15;;;;;;;5.93;1.88;;;;;;;-0.15;93.50;101510.63;10418243;28;20175;-79
2023/12/29 00:40:16;;;;;;;3.70;1.60;;;;;;;-0.17;93.60;101506.38;10417167;28;20048;-79
2023/12/29 00:45:17;;;;;;;4.68;1.65;;;;;;;-0.21;93.37;101508.25;10417889;28;20045;-79
2023/12/29 00:50:18;;;;;;;3.15;1.67;;;;;;;-0.36;93.20;101482.84;10418857;28;20034;-78
2023/12/29 00:55:19;;;;;;;2.63;1.40;;;;;;;-0.44;93.74;101477.16;10416943;28;20049;-79
2023/12/29 01:00:20;;;;;;;2.53;1.30;;;;;;;-0.36;93.53;101485.47;10417925;28;20049;-79
2023/12/29 01:05:21;;;;;;;3.28;1.30;;;;;;;-0.77;94.21;101420.34;10417130;28;20037;-79
2023/12/29 01:10:22;;;;;;;3.15;1.52;;;;;;;-0.48;94.24;101479.03;10417013;28;20033;-78
2023/12/29 01:15:23;;;;;;;4.05;1.67;;;;;;;-0.51;94.04;101460.91;10417129;28;20048;-78
2023/12/29 01:20:24;;;;;;;5.30;1.80;;;;;;;-0.51;93.88;101472.22;10416323;28;20033;-78
2023/12/29 01:25:24;;;;;;;3.42;1.50;;;;;;;-0.96;94.52;101389.88;10417038;28;20045;-78
2023/12/29 01:30:25;;;;;;;3.33;1.60;;;;;;;-0.77;94.22;101422.97;10414852;28;20037;-78
2023/12/29 01:35:26;;;;;;;3.95;1.58;;;;;;;-0.65;94.63;101456.31;10415985;28;20061;-78
2023/12/29 01:40:27;;;;;;;5.20;1.90;;;;;;;-0.62;94.32;101453.56;10415665;28;20046;-78
2023/12/29 01:45:28;;;;;;;6.75;1.90;;;;;;;-0.53;94.78;101457.53;10415293;28;20536;-78
2023/12/29 01:50:29;;;;;;;4.22;1.38;;;;;;;-0.58;93.75;101441.22;10415358;28;20037;-78
2023/12/29 01:55:31;;;;;;;5.00;1.80;;;;;;;-0.51;93.87;101455.69;10411970;28;20072;-74
2023/12/29 02:00:33;;;;;;;3.05;1.50;;;;;;;-0.48;93.66;101451.19;10413090;28;20130;-78
2023/12/29 02:05:35;;;;;;;2.63;1.38;;;;;;;-0.42;93.96;101439.59;10414322;28;20496;-78
2023/12/29 02:10:37;;;;;;;3.97;1.67;;;;;;;-0.49;93.84;101410.31;10415069;28;20048;-78
2023/12/29 02:15:37;;;;;;;5.30;1.50;;;;;;;-0.61;93.64;101369.16;10414881;28;20041;-78
2023/12/29 02:20:38;;;;;;;5.18;2.15;;;;;;;-0.16;93.79;101434.94;10414302;28;20041;-78
2023/12/29 02:25:39;;;;;;;6.75;1.63;;;;;;;-0.04;94.12;101423.91;10414534;28;20120;-78
2023/12/29 02:30:54;;;;;;;6.53;1.67;;;;;;;-0.02;93.77;101429.91;10413611;28;20041;-78
2023/12/29 02:35:58;;;;;;;4.95;1.80;;;;;;;-0.17;93.50;101418.44;10413529;28;20103;-78
2023/12/29 02:40:59;;;;;;;4.05;1.60;;;;;;;-0.46;94.01;101371.03;10413570;28;20084;-77
2023/12/29 02:46:00;;;;;;;3.40;1.50;;;;;;;-0.13;93.94;101416.53;10413299;28;20041;-74
2023/12/29 02:51:01;;;;;;;5.38;2.10;;;;;;;-0.15;94.07;101429.66;10410865;28;20049;-78
2023/12/29 02:56:02;;;;;;;3.67;1.73;;;;;;;-0.14;93.81;101417.44;10409325;28;20072;-79
2023/12/29 03:01:03;;;;;;;9.68;1.83;;;;;;;-0.16;94.39;101411.44;10406371;28;20041;-79
2023/12/29 03:06:04;;;;;;;7.78;1.95;;;;;;;-0.55;93.96;101344.53;10407086;28;20064;-79
2023/12/29 03:11:05;;;;;;;6.57;2.22;;;;;;;-0.37;94.76;101382.81;10411243;28;20041;-78
2023/12/29 03:16:05;;;;;;;4.15;2.00;;;;;;;-0.29;94.15;101392.91;10412586;28;20037;-78
2023/12/29 03:21:07;;;;;;;7.47;2.33;;;;;;;-0.42;95.03;101382.16;10413878;28;20045;-86
2023/12/29 03:26:08;;;;;;;7.05;2.75;;;;;;;-0.46;94.55;101375.41;10420429;28;20537;-76
2023/12/29 03:31:08;;;;;;;5.13;2.50;;;;;;;-0.24;95.00;101407.44;10420474;28;20041;-76
2023/12/29 03:36:09;;;;;;;4.95;2.47;;;;;;;-0.63;95.08;101330.97;10420663;28;20140;-76
2023/12/29 03:41:10;;;;;;;12.18;2.25;;;;;;;-0.56;94.41;101343.69;10419305;28;20041;-76
2023/12/29 03:46:18;;;;;;;6.32;2.55;;;;;;;-0.22;95.22;101391.69;10421058;28;20053;-77
2023/12/29 03:51:18;;;;;;;5.97;2.25;;;;;;;-0.61;94.62;101330.00;10418805;28;20068;-79
2023/12/29 03:56:19;;;;;;;4.35;2.28;;;;;;;-0.27;94.53;101367.53;10419765;28;20077;-83
2023/12/29 04:01:20;;;;;;;6.28;2.30;;;;;;;-0.17;94.59;101375.81;10419615;28;20091;-78
2023/12/29 04:06:21;;;;;;;8.18;2.40;;;;;;;-0.14;95.02;101381.72;10420146;28;20503;-84
2023/12/29 04:11:22;;;;;;;6.57;2.80;;;;;;;-0.29;94.85;101356.34;10420085;28;20037;-78
2023/12/29 04:16:23;;;;;;;4.78;2.20;;;;;;;-0.27;95.03;101378.00;10415931;28;20045;-80
2023/12/29 04:21:24;;;;;;;5.40;2.60;;;;;;;-0.50;94.92;101338.16;10417245;28;20132;-79
2023/12/29 04:26:24;;;;;;;8.07;2.42;;;;;;;-0.55;94.83;101318.44;10417203;28;20526;-80
2023/12/29 04:31:25;;;;;;;5.45;2.33;;;;;;;-0.17;95.02;101368.81;10419653;28;20432;-75
2023/12/29 04:36:26;;;;;;;6.18;2.40;;;;;;;-0.16;95.32;101372.25;10416574;28;20448;-76
2023/12/29 04:41:27;;;;;;;8.63;2.33;;;;;;;-0.19;94.51;101368.03;10417018;28;20041;-78
2023/12/29 04:46:27;;;;;;;7.15;3.03;;;;;;;-0.27;94.81;101362.31;10417693;28;20489;-77
2023/12/29 04:51:28;;;;;;;13.15;3.72;;;;;;;-0.18;94.49;101398.47;10418529;28;20459;-77
2023/12/29 04:56:29;;;;;;;6.35;2.40;;;;;;;-0.28;94.93;101408.47;10418014;28;20048;-77
2023/12/29 05:01:30;;;;;;;7.57;2.92;;;;;;;-0.28;94.86;101399.81;10417005;28;20038;-77
2023/12/29 05:06:31;;;;;;;7.13;2.75;;;;;;;-0.20;95.20;101407.28;10417391;28;20042;-77
2023/12/29 05:11:32;;;;;;;8.27;3.10;;;;;;;-0.28;95.07;101381.53;10416731;28;20037;-77
2023/12/29 05:16:33;;;;;;;6.82;3.05;;;;;;;-0.29;94.83;101362.41;10416805;28;20046;-77
2023/12/29 05:21:34;;;;;;;19.70;3.90;;;;;;;-0.10;94.54;101378.03;10416963;28;20041;-77
2023/12/29 05:26:35;;;;;;;11.30;3.60;;;;;;;-0.20;94.60;101335.00;10416893;28;20521;-77
2023/12/29 05:31:35;;;;;;;9.68;3.67;;;;;;;0.32;94.32;101394.28;10416205;28;20034;-77
2023/12/29 05:36:37;;;;;;;10.13;3.55;;;;;;;0.31;93.76;101398.69;10417162;28;20525;-77
2023/12/29 05:41:37;;;;;;;9.40;3.20;;;;;;;-0.09;93.80;101327.50;10414959;28;20056;-77
2023/12/29 05:46:38;;;;;;;8.75;2.95;;;;;;;0.40;94.01;101393.00;10415424;28;20037;-77
2023/12/29 05:51:39;;;;;;;7.63;3.00;;;;;;;0.63;93.66;101384.00;10416003;28;20048;-77
2023/12/29 05:56:40;;;;;;;8.02;2.63;;;;;;;0.84;92.94;101386.44;10416355;28;20045;-78
2023/12/29 06:01:40;;;;;;;11.95;2.88;;;;;;;0.80;92.83;101349.09;10414745;28;20049;-77
2023/12/29 06:06:45;;;;;;;6.60;2.65;;;;;;;1.11;92.59;101368.44;10414718;28;20048;-77
2023/12/29 06:11:46;;;;;;;6.57;3.15;;;;;;;1.58;91.64;101383.31;10415211;28;20073;-79
2023/12/29 06:16:46;;;;;;;8.75;3.38;;;;;;;1.79;90.90;101374.25;10414842;28;20064;-77
2023/12/29 06:21:47;;;;;;;5.25;2.80;;;;;;;1.57;89.85;101303.91;10414785;28;20052;-78
2023/12/29 06:26:48;;;;;;;6.32;3.05;;;;;;;2.25;88.92;101369.00;10414545;28;20037;-78
2023/12/29 06:31:49;;;;;;;7.90;3.75;;;;;;;2.25;87.93;101310.50;10413766;28;20103;-80
2023/12/29 06:36:49;;;;;;;6.65;2.88;;;;;;;2.71;87.29;101342.66;10414020;28;20512;-79
2023/12/29 06:41:50;;;;;;;9.07;3.03;;;;;;;3.01;86.81;101339.09;10414313;28;20053;-80
2023/12/29 06:46:51;;;;;;;6.40;3.03;;;;;;;2.95;86.03;101268.63;10413130;28;20132;-80
2023/12/29 06:51:52;;;;;;;5.68;3.00;;;;;;;3.18;85.38;101273.28;10411843;28;20043;-79
2023/12/29 06:56:53;;;;;;;8.18;3.00;;;;;;;3.74;84.22;101324.88;10413496;28;20037;-80
2023/12/29 07:01:54;;;;;;;6.85;2.80;;;;;;;3.53;83.32;101279.81;10413292;28;20045;-80
2023/12/29 07:06:54;;;;;;;7.13;2.78;;;;;;;4.06;83.22;101334.09;10412645;28;20062;-80
2023/12/29 07:11:55;;;;;;;5.13;2.65;;;;;;;4.33;82.88;101338.47;10412488;28;20049;-80
2023/12/29 07:16:56;;;;;;;4.80;2.55;;;;;;;4.60;81.86;101329.66;10412662;28;20080;-80
2023/12/29 07:21:56;;;;;;;5.30;2.55;;;;;;;4.81;81.30;101336.06;10413409;28;20561;-80
2023/12/29 07:26:57;;;;;;;6.03;2.85;;;;;;;4.75;79.78;101278.59;10412852;28;20128;-80
2023/12/29 07:31:59;;;;;;;8.77;2.83;;;;;;;5.11;78.82;101306.75;10412790;28;20056;-80
2023/12/29 07:37:00;;;;;;;7.00;2.78;;;;;;;5.29;77.62;101311.66;10412099;28;20061;-80
2023/12/29 07:42:00;;;;;;;11.13;2.92;;;;;;;5.54;78.02;101314.22;10412588;28;20045;-80
2023/12/29 07:47:01;;;;;;;6.35;2.75;;;;;;;5.73;76.62;101300.50;10412659;28;20451;-80
2023/12/29 07:52:02;;;;;;;8.68;2.47;;;;;;;5.87;76.47;101266.06;10411844;28;20060;-80
2023/12/29 07:57:03;;;;;;;4.97;2.30;;;;;;;5.67;74.75;101192.88;10411844;28;20134;-80
2023/12/29 08:02:04;;;;;;;5.05;2.22;;;;;;;6.30;73.72;101254.06;10412406;28;20080;-80
2023/12/29 08:07:05;;;;;;;4.60;2.58;;;;;;;6.52;73.06;101269.94;10419745;28;20048;-81
2023/12/29 08:12:06;;;;;;;5.47;2.10;;;;;;;6.59;73.07;101265.84;10420217;28;20048;-81
2023/12/29 08:17:08;;;;;;;4.70;2.35;;;;;;;6.63;72.00;101240.06;10420220;28;20041;-82
2023/12/29 08:22:08;;;;;;;4.78;3.00;;;;;;;7.00;70.39;101255.63;10419696;28;20091;-81
2023/12/29 08:27:11;;;;;;;12.13;3.53;;;;;;;6.90;69.81;101205.34;10418787;28;20124;-80
2023/12/29 08:32:12;;;;;;;10.15;4.70;;;;;;;7.13;69.23;101182.34;10419081;28;20493;-81
2023/12/29 08:37:19;;;;;;;12.63;5.07;;;;;;;7.48;69.27;101228.84;10419029;28;20053;-83
2023/12/29 08:42:21;;;;;;;8.98;4.20;;;;;;;7.57;68.30;101212.22;10418707;28;20045;-81
2023/12/29 08:47:22;;;;;;;16.50;4.70;;;;;;;7.52;68.27;101172.94;10418124;28;20072;-81
2023/12/29 08:52:23;;;;;;;7.72;3.95;;;;;;;7.52;68.45;101166.81;10419174;28;20065;-82
2023/12/29 08:57:24;;;;;;;6.95;3.45;;;;;;;7.83;67.20;101190.66;10417481;28;20413;-84
2023/12/29 09:02:24;;;;;;;9.18;3.25;;;;;;;7.85;65.57;101188.75;10418621;28;20116;-84
2023/12/29 09:07:27;;;;;;;7.43;3.08;;;;;;;7.85;65.00;101152.53;10417381;28;20056;-82
2023/12/29 09:12:28;;;;;;;8.35;3.40;;;;;;;7.77;63.83;101124.09;10418217;28;20069;-85
2023/12/29 09:17:29;;;;;;;6.30;3.50;;;;;;;8.20;62.57;101180.44;10415908;28;20069;-83
2023/12/29 09:22:30;;;;;;;10.07;3.67;;;;;;;8.30;62.55;101167.25;10416940;28;20065;-83
2023/12/29 09:27:31;;;;;;;8.27;3.85;;;;;;;8.23;62.37;101109.56;10416772;28;20061;-84
2023/12/29 09:32:31;;;;;;;9.40;4.25;;;;;;;8.27;61.58;101098.69;10417355;28;20042;-82
2023/12/29 09:37:32;;;;;;;10.15;3.92;;;;;;;8.40;60.32;101120.50;10418142;28;20451;-85
2023/12/29 09:42:35;;;;;;;8.60;3.75;;;;;;;8.16;60.33;101073.16;10417711;28;20041;-83
2023/12/29 09:47:42;;;;;;;8.13;2.38;;;;;;;8.74;58.69;101128.94;10416895;28;20599;-84
2023/12/29 09:52:44;;;;;;;3.30;1.50;;;;;;;8.72;59.03;101125.59;10415358;28;20041;-84
2023/12/29 09:57:47;;;;;;;4.32;1.52;;;;;;;8.66;57.68;101099.66;10415488;28;20124;-83
2023/12/29 10:02:53;;;;;;;2.50;0.90;;;;;;;8.50;55.07;101051.69;10415970;28;20405;-84
2023/12/29 10:07:55;;;;;;;7.40;1.35;;;;;;;8.79;56.32;101075.53;10415308;28;20121;-83
2023/12/29 10:12:57;;;;;;;3.13;1.00;;;;;;;8.67;56.02;101049.22;10414524;28;20042;-83
2023/12/29 10:18:15;;;;;;;2.72;1.13;;;;;;;8.94;52.80;101055.59;10415378;28;20046;-83
2023/12/29 10:23:32;;;;;;;5.82;1.40;;;;;;;8.91;53.96;101045.28;10414088;28;20408;-83
2023/12/29 10:28:33;;;;;;;2.88;1.13;;;;;;;8.59;55.00;100993.44;10413906;28;20045;-83
2023/12/29 10:33:34;;;;;;;3.75;1.20;;;;;;;8.96;54.71;101058.97;10414213;28;20041;-82
2023/12/29 10:38:35;;;;;;;7.22;1.40;;;;;;;8.92;54.58;101036.38;10411223;28;20061;-83
2023/12/29 10:43:36;;;;;;;4.07;0.90;;;;;;;9.05;53.73;101060.75;10413874;28;20405;-80
2023/12/29 10:48:38;;;;;;;3.40;1.38;;;;;;;8.90;53.02;101049.75;10412511;28;20796;-81
2023/12/29 10:53:39;;;;;;;4.18;0.95;;;;;;;8.69;53.33;101004.84;10402767;28;20460;-81
2023/12/29 10:58:39;;;;;;;3.63;0.98;;;;;;;8.96;52.56;101048.34;10395227;28;20156;-84
2023/12/29 11:03:40;;;;;;;6.38;1.27;;;;;;;8.97;53.17;101050.03;10390147;28;20151;-84
2023/12/29 11:08:41;;;;;;;8.57;1.42;;;;;;;8.63;52.43;100986.03;10392488;28;20073;-83
2023/12/29 11:13:42;;;;;;;5.18;0.80;;;;;;;8.93;52.52;101030.09;10389981;28;20060;-83
2023/12/29 11:18:44;;;;;;;6.25;1.27;;;;;;;8.96;52.25;101021.84;10396196;28;20076;-83
2023/12/29 11:23:46;;;;;;;6.68;1.40;;;;;;;8.89;52.14;101005.69;10398424;28;20045;-82
2023/12/29 11:28:48;;;;;;;2.58;1.23;;;;;;;8.89;52.33;101012.81;10405006;28;20072;-81
2023/12/29 11:34:06;;;;;;;7.15;1.80;;;;;;;8.94;50.38;101012.38;10413073;28;20044;-81
2023/12/29 11:39:30;;;;;;;3.90;1.30;;;;;;;8.85;49.82;101008.75;10414652;28;20114;-82
2023/12/29 11:44:33;;;;;;;3.65;1.10;;;;;;;8.77;50.76;100998.03;10421270;28;20045;-81
2023/12/29 11:50:02;;;;;;;4.82;1.17;;;;;;;8.86;47.75;101010.44;10419289;28;20513;-80
2023/12/29 11:55:10;;;;;;;5.97;1.00;;;;;;;8.73;47.17;101009.88;10420039;28;20058;-80
2023/12/29 12:00:11;;;;;;;8.20;1.17;;;;;;;8.42;50.22;100965.00;10418128;28;20092;-80
2023/12/29 12:05:12;;;;;;;4.70;1.10;;;;;;;8.57;51.63;101008.63;10427705;28;20124;-78
2023/12/29 12:10:20;;;;;;;4.40;0.88;;;;;;;8.46;50.60;101011.38;10423723;28;20124;-80
2023/12/29 12:15:30;;;;;;;4.05;0.98;;;;;;;8.44;50.62;101018.66;10421747;28;20124;-78
2023/12/29 12:20:35;;;;;;;3.13;0.82;;;;;;;8.32;51.66;101001.19;10423332;28;20083;-79
2023/12/29 12:25:39;;;;;;;2.50;0.90;;;;;;;8.25;50.36;101011.47;10425484;28;20405;-79
2023/12/29 12:30:40;;;;;;;3.80;0.85;;;;;;;7.84;51.39;100955.13;10418515;28;20053;-79
2023/12/29 12:35:41;;;;;;;1.73;0.65;;;;;;;8.01;51.35;101003.88;10418095;28;20065;-79
2023/12/29 12:40:42;;;;;;;6.10;1.00;;;;;;;7.87;50.97;100991.06;10418549;28;20416;-79
2023/12/29 12:45:48;;;;;;;9.95;0.82;;;;;;;7.04;50.67;100871.38;10418931;28;20119;-80
2023/12/29 12:50:49;;;;;;;1.73;0.60;;;;;;;7.16;51.70;100893.25;10416859;28;20041;-80
2023/12/29 12:55:52;;;;;;;2.05;0.65;;;;;;;7.05;52.08;100894.16;10418113;28;20076;-80
2023/12/29 13:00:52;;;;;;;2.58;0.68;;;;;;;7.12;52.13;100926.16;10418363;28;20152;-80
2023/12/29 13:05:54;;;;;;;8.38;1.38;;;;;;;6.96;53.59;100926.66;10417661;28;20104;-80
2023/12/29 13:10:54;;;;;;;4.75;1.00;;;;;;;7.18;54.64;100979.34;10415895;28;20124;-81
2023/12/29 13:15:55;;;;;;;8.60;1.02;;;;;;;6.98;55.96;100985.47;10416950;28;20120;-81
2023/12/29 13:20:56;;;;;;;9.20;0.95;;;;;;;6.37;56.83;100920.97;10416663;28;20524;-79
2023/12/29 13:25:59;;;;;;;5.28;0.90;;;;;;;6.56;58.04;100988.09;10418072;28;20136;-81
2023/12/29 13:31:01;;;;;;;4.75;1.48;;;;;;;6.33;58.63;100982.88;10414034;28;20037;-86
2023/12/29 13:36:43;;;;;;;7.50;1.08;;;;;;;6.12;60.88;100979.34;10391559;28;20064;-80
2023/12/29 13:41:45;;;;;;;24.15;11.20;;;;;;;5.64;61.38;100966.44;10403548;28;20041;-80
2023/12/29 13:46:47;;;;;;;23.02;12.30;;;;;;;5.33;63.41;100976.75;10397304;28;20129;-78
2023/12/29 13:51:48;;;;;;;23.25;12.65;;;;;;;4.96;64.83;100969.00;10399530;28;20051;-78
2023/12/29 13:56:53;;;;;;;14.57;5.88;;;;;;;4.73;66.83;100977.81;10414484;28;20525;-78
2023/12/29 14:01:54;;;;;;;7.43;3.50;;;;;;;4.35;66.40;100936.75;10410404;28;20052;-74
2023/12/29 14:07:02;;;;;;;13.43;2.55;;;;;;;4.37;68.48;100949.78;10412863;28;20049;-73
2023/12/29 14:12:03;;;;;;;11.07;3.97;;;;;;;4.30;67.78;100975.72;10410734;28;20110;-80
2023/12/29 14:17:04;;;;;;;21.15;3.72;;;;;;;4.02;68.67;100935.66;10410737;28;20037;-80
2023/12/29 14:22:05;;;;;;;9.90;2.30;;;;;;;3.79;68.34;100902.28;10409975;28;20053;-77
2023/12/29 14:27:08;;;;;;;8.93;2.13;;;;;;;3.74;69.29;100914.91;10408631;28;20083;-82
2023/12/29 14:32:09;;;;;;;4.43;1.73;;;;;;;3.65;69.34;100900.69;10409334;28;20076;-78
2023/12/29 14:37:10;;;;;;;4.65;1.20;;;;;;;3.93;68.58;100946.84;10411019;28;20139;-82
2023/12/29 14:42:11;;;;;;;4.50;1.40;;;;;;;3.54;68.28;100877.78;10413155;28;20152;-75
2023/12/29 14:47:15;;;;;;;5.63;1.70;;;;;;;3.94;68.47;100953.75;10413321;28;20053;-76
2023/12/29 14:52:16;;;;;;;5.40;1.88;;;;;;;3.96;68.20;100954.50;10412987;28;20077;-76
2023/12/29 14:57:17;;;;;;;5.28;2.05;;;;;;;3.62;68.22;100907.00;10413191;28;20071;-75
2023/12/29 15:02:18;;;;;;;5.40;1.65;;;;;;;3.57;67.72;100905.63;10408600;28;20509;-77
2023/12/29 15:07:19;;;;;;;5.78;2.20;;;;;;;3.61;68.72;100936.81;10408112;28;20055;-79
2023/12/29 15:12:20;;;;;;;7.75;2.35;;;;;;;3.57;68.92;100945.03;10411439;28;20049;-76
2023/12/29 15:17:21;;;;;;;10.40;4.15;;;;;;;3.51;69.25;100951.56;10412274;28;20505;-77
2023/12/29 15:22:26;;;;;;;27.10;4.68;;;;;;;3.04;69.82;100907.59;10411971;28;20081;-78
2023/12/29 15:27:26;;;;;;;11.27;5.20;;;;;;;2.69;69.90;100880.22;10413059;28;20045;-78
2023/12/29 15:32:27;;;;;;;13.52;4.75;;;;;;;2.97;70.66;100954.44;10412583;28;20497;-78
2023/12/29 15:37:28;;;;;;;14.45;6.65;;;;;;;2.08;70.49;100828.41;10412996;28;20079;-78
2023/12/29 15:42:29;;;;;;;52.78;26.05;;;;;;;2.57;71.59;100925.59;10412351;28;20099;-78
2023/12/29 15:47:30;;;;;;;55.63;28.67;;;;;;;2.66;71.81;100945.13;10412129;28;20068;-78
2023/12/29 15:52:31;;;;;;;70.63;37.15;;;;;;;2.61;72.10;100953.31;10412194;28;20046;-85
2023/12/29 15:57:32;;;;;;;124.78;66.70;;;;;;;2.15;72.25;100890.78;10406806;28;20061;-79
2023/12/29 16:02:32;;;;;;;67.97;35.40;;;;;;;1.78;72.12;100846.03;10386820;28;20061;-78
2023/12/29 16:07:34;;;;;;;71.60;43.30;;;;;;;1.97;72.38;100897.22;10386762;28;20156;-75
2023/12/29 16:12:35;;;;;;;98.15;50.03;;;;;;;2.15;72.89;100937.13;10398286;28;20029;-73
2023/12/29 16:17:37;;;;;;;101.13;48.20;;;;;;;1.84;73.52;100910.28;10390333;28;20057;-77
2023/12/29 16:22:38;;;;;;;80.38;43.20;;;;;;;1.63;73.38;100867.97;10396886;28;20096;-77
2023/12/29 16:27:42;;;;;;;40.33;22.92;;;;;;;1.81;73.33;100918.34;10401486;28;20482;-79
2023/12/29 16:32:42;;;;;;;24.80;14.48;;;;;;;1.80;72.72;100917.50;10408404;28;20074;-79
2023/12/29 16:37:43;;;;;;;42.42;18.23;;;;;;;1.74;72.83;100914.44;10400223;28;20053;-80
2023/12/29 16:42:44;;;;;;;46.80;21.35;;;;;;;1.28;73.20;100857.94;10401805;28;20045;-79
2023/12/29 16:47:45;;;;;;;49.90;19.88;;;;;;;1.52;73.70;100900.06;10393891;28;20038;-79
2023/12/29 16:52:46;;;;;;;40.65;20.17;;;;;;;1.47;74.18;100894.28;10405673;28;20045;-79
2023/12/29 16:57:47;;;;;;;36.15;18.00;;;;;;;1.12;74.19;100812.72;10400548;28;20065;-80
2023/12/29 17:02:47;;;;;;;38.45;15.13;;;;;;;1.13;74.64;100832.72;10398429;28;20041;-79
2023/12/29 17:07:48;;;;;;;19.08;10.32;;;;;;;1.34;73.88;100883.72;10397723;28;20033;-79
2023/12/29 17:12:51;;;;;;;21.45;12.52;;;;;;;1.35;74.14;100885.41;10405810;28;20053;-79
2023/12/29 17:17:53;;;;;;;25.13;12.20;;;;;;;0.84;74.65;100805.75;10416562;28;20041;-79
2023/12/29 17:22:54;;;;;;;24.42;13.60;;;;;;;1.18;75.09;100866.47;10416775;28;20516;-79
2023/12/29 17:27:58;;;;;;;25.05;12.98;;;;;;;0.98;75.55;100860.66;10416397;28;20041;-79
2023/12/29 17:32:59;;;;;;;40.27;13.70;;;;;;;0.78;75.46;100858.41;10416540;28;20038;-78
2023/12/29 17:37:59;;;;;;;28.30;15.95;;;;;;;0.69;75.61;100883.38;10415182;28;20061;-78
2023/12/29 17:43:02;;;;;;;19.48;10.18;;;;;;;0.69;75.98;100865.06;10415761;28;20072;-78
2023/12/29 17:48:03;;;;;;;18.20;8.30;;;;;;;0.82;76.31;100857.31;10414800;28;20076;-79
2023/12/29 17:53:05;;;;;;;18.67;6.03;;;;;;;0.94;76.14;100858.34;10416312;28;20041;-78
2023/12/29 17:58:05;;;;;;;8.88;4.05;;;;;;;1.00;75.44;100853.56;10415550;28;20038;-78
2023/12/29 18:03:06;;;;;;;9.20;4.97;;;;;;;0.65;75.35;100803.41;10415494;28;20535;-78
2023/12/29 18:08:07;;;;;;;15.30;6.38;;;;;;;0.61;75.93;100823.69;10414289;28;20045;-79
2023/12/29 18:13:08;;;;;;;11.85;4.93;;;;;;;0.55;76.46;100817.97;10414543;28;20049;-79
2023/12/29 18:18:08;;;;;;;12.77;5.13;;;;;;;0.30;76.90;100776.78;10413537;28;20048;-79
2023/12/29 18:23:09;;;;;;;12.80;5.25;;;;;;;0.65;76.93;100858.31;10414667;28;20045;-78
2023/12/29 18:28:10;;;;;;;14.30;5.80;;;;;;;0.71;77.27;100863.19;10415167;28;20147;-78
2023/12/29 18:33:11;;;;;;;13.15;4.97;;;;;;;0.69;77.75;100859.84;10411380;28;20037;-76
2023/12/29 18:38:12;;;;;;;37.10;5.88;;;;;;;0.12;77.76;100773.47;10414500;28;20460;-76
2023/12/29 18:43:13;;;;;;;14.63;5.28;;;;;;;0.37;78.49;100844.28;10413943;28;20056;-76
2023/12/29 18:48:13;;;;;;;10.95;4.50;;;;;;;0.32;79.09;100841.09;10414362;28;20064;-77
2023/12/29 18:53:15;;;;;;;17.23;5.82;;;;;;;0.35;78.65;100846.13;10412122;28;20037;-76
2023/12/29 18:58:16;;;;;;;12.70;6.50;;;;;;;0.15;79.57;100836.00;10414199;28;20045;-76
2023/12/29 19:03:16;;;;;;;20.00;5.70;;;;;;;0.11;80.42;100831.88;10412886;28;20116;-76
2023/12/29 19:08:17;;;;;;;23.40;7.93;;;;;;;-0.14;80.73;100801.97;10412757;28;20053;-77
2023/12/29 19:13:18;;;;;;;28.17;11.48;;;;;;;0.10;81.61;100835.44;10413448;28;20065;-76
2023/12/29 19:18:19;;;;;;;19.33;8.52;;;;;;;0.17;81.50;100840.22;10413037;28;20053;-77
2023/12/29 19:23:19;;;;;;;29.70;10.90;;;;;;;0.02;81.58;100808.91;10412428;28;20073;-77
2023/12/29 19:28:20;;;;;;;28.33;8.27;;;;;;;0.01;81.95;100823.75;10413498;28;20136;-77
2023/12/29 19:33:21;;;;;;;18.33;6.68;;;;;;;-0.33;81.39;100777.81;10411302;28;20042;-76
2023/12/29 19:38:22;;;;;;;29.42;9.35;;;;;;;-0.11;82.64;100842.75;10411263;28;20065;-76
2023/12/29 19:43:23;;;;;;;20.85;8.18;;;;;;;-0.11;82.63;100830.53;10411034;28;20510;-77
2023/12/29 19:48:24;;;;;;;14.90;6.57;;;;;;;-0.31;82.49;100813.38;10412091;28;20072;-75
2023/12/29 19:53:25;;;;;;;23.20;6.30;;;;;;;-0.26;82.72;100831.41;10412744;28;20378;-77
2023/12/29 19:58:25;;;;;;;25.73;9.55;;;;;;;-0.92;83.34;100723.72;10411714;28;20041;-77
2023/12/29 20:03:26;;;;;;;29.15;9.23;;;;;;;-0.37;84.01;100821.53;10419379;28;20124;-76
2023/12/29 20:08:27;;;;;;;22.88;10.40;;;;;;;-0.36;84.05;100838.03;10418111;28;20041;-78
2023/12/29 20:13:28;;;;;;;28.30;9.75;;;;;;;-0.35;84.67;100840.59;10420259;28;20041;-78
2023/12/29 20:18:29;;;;;;;36.08;10.10;;;;;;;-0.43;85.75;100821.06;10419559;28;20550;-78
2023/12/29 20:23:29;;;;;;;26.08;6.97;;;;;;;-0.39;85.16;100840.81;10419599;28;20045;-77
2023/12/29 20:28:33;;;;;;;12.73;4.50;;;;;;;-0.71;85.47;100806.94;10419387;28;20029;-77
2023/12/29 20:33:35;;;;;;;40.72;16.75;;;;;;;-0.54;85.29;100832.06;10418687;28;20048;-78
2023/12/29 20:38:35;;;;;;;31.85;15.38;;;;;;;-0.60;85.15;100838.50;10420039;28;20132;-78
2023/12/29 20:43:36;;;;;;;50.72;20.08;;;;;;;-0.90;85.63;100804.47;10418712;28;20042;-78
2023/12/29 20:48:37;;;;;;;27.42;15.95;;;;;;;-0.89;85.61;100834.03;10418554;28;20041;-78
2023/12/29 20:53:38;;;;;;;35.78;14.82;;;;;;;-0.83;86.21;100846.72;10418113;28;20091;-78
2023/12/29 20:58:38;;;;;;;30.58;13.55;;;;;;;-0.81;86.15;100863.97;10417983;28;20041;-78
2023/12/29 21:03:40;;;;;;;18.88;9.30;;;;;;;-0.85;86.10;100874.66;10416074;28;20049;-77
2023/12/29 21:08:41;;;;;;;23.95;11.38;;;;;;;-1.01;86.01;100840.75;10417215;28;20493;-77
2023/12/29 21:13:42;;;;;;;21.77;9.27;;;;;;;-0.96;86.44;100849.13;10415956;28;20493;-77
2023/12/29 21:18:43;;;;;;;23.10;9.48;;;;;;;-1.23;86.51;100822.75;10417681;28;20037;-79
2023/12/29 21:23:44;;;;;;;19.27;8.55;;;;;;;-1.63;86.55;100775.34;10416702;28;20041;-78
2023/12/29 21:28:45;;;;;;;23.08;8.38;;;;;;;-1.70;87.03;100753.16;10417609;28;20485;-78
2023/12/29 21:33:46;;;;;;;19.02;7.22;;;;;;;-1.23;87.95;100839.25;10417376;28;20045;-78
2023/12/29 21:38:46;;;;;;;18.25;6.70;;;;;;;-1.73;88.18;100768.94;10415577;28;20481;-78
2023/12/29 21:43:48;;;;;;;15.27;5.75;;;;;;;-1.32;87.84;100837.13;10415879;28;20094;-78
2023/12/29 21:48:50;;;;;;;18.75;6.78;;;;;;;-1.39;88.09;100833.16;10416779;28;20421;-78
2023/12/29 21:53:51;;;;;;;17.52;7.00;;;;;;;-1.49;87.66;100824.97;10415586;28;20041;-78
2023/12/29 21:58:52;;;;;;;14.95;6.47;;;;;;;-1.55;88.33;100824.47;10416391;28;20048;-78
2023/12/29 22:03:52;;;;;;;15.80;7.90;;;;;;;-1.58;88.10;100817.63;10415774;28;20037;-78
2023/12/29 22:08:53;;;;;;;16.95;7.88;;;;;;;-1.52;88.43;100814.72;10415310;28;20137;-79
2023/12/29 22:13:54;;;;;;;18.05;7.18;;;;;;;-2.09;89.28;100746.47;10415085;28;20037;-78
2023/12/29 22:18:55;;;;;;;17.73;6.35;;;;;;;-1.75;89.17;100815.03;10413594;28;20044;-78
2023/12/29 22:23:56;;;;;;;16.33;6.10;;;;;;;-1.79;89.20;100810.91;10414974;28;20043;-78
2023/12/29 22:28:56;;;;;;;25.30;6.10;;;;;;;-1.90;90.03;100791.47;10414587;28;20041;-78
2023/12/29 22:33:57;;;;;;;15.27;5.22;;;;;;;-1.95;89.54;100797.81;10414632;28;20119;-78
2023/12/29 22:38:58;;;;;;;10.82;4.28;;;;;;;-1.95;90.04;100779.59;10413456;28;20579;-79
2023/12/29 22:43:59;;;;;;;11.43;4.25;;;;;;;-2.10;90.49;100760.38;10414112;28;20049;-78
2023/12/29 22:49:00;;;;;;;7.28;3.53;;;;;;;-1.87;90.30;100783.50;10413540;28;20060;-78
2023/12/29 22:54:00;;;;;;;18.63;4.22;;;;;;;-1.89;90.17;100774.91;10413359;28;20110;-78
2023/12/29 22:59:01;;;;;;;11.55;3.67;;;;;;;-1.84;90.23;100787.69;10414187;28;20084;-78
2023/12/29 23:04:02;;;;;;;9.68;3.90;;;;;;;-1.84;90.02;100796.34;10413187;28;20049;-78